sensor_id;sensor_type;location;lat;lon;timestamp;P1;durP1;ratioP1;P2;durP2;ratioP2
57778;SDS011;43608;49.486;9.640;2023-02-19T00:00:25;6.15;;;5.50;;
57778;SDS011;43608;49.486;9.640;2023-02-19T00:00:56;6.30;;;5.43;;
57778;SDS011;43608;49.486;9.640;2023-02-19T00:01:30;6.93;;;5.50;;
57778;SDS011;43608;49.486;9.640;2023-02-19T00:02:02;6.28;;;5.30;;
57778;SDS011;43608;49.486;9.640;2023-02-19T00:02:32;6.38;;;5.70;;
57778;SDS011;43608;49.486;9.640;2023-02-19T00:03:04;6.20;;;5.50;;
57778;SDS011;43608;49.486;9.640;2023-02-19T00:03:35;6.15;;;5.20;;
57778;SDS011;43608;49.486;9.640;2023-02-19T00:04:08;7.03;;;5.88;;
57778;SDS011;43608;49.486;9.640;2023-02-19T00:04:43;6.30;;;5.70;;
57778;SDS011;43608;49.486;9.640;2023-02-19T00:05:14;5.88;;;5.28;;
57778;SDS011;43608;49.486;9.640;2023-02-19T00:05:44;5.95;;;5.35;;
57778;SDS011;43608;49.486;9.640;2023-02-19T00:06:14;7.10;;;5.22;;
57778;SDS011;43608;49.486;9.640;2023-02-19T00:06:45;5.80;;;5.20;;
57778;SDS011;43608;49.486;9.640;2023-02-19T00:07:16;6.07;;;5.30;;
57778;SDS011;43608;49.486;9.640;2023-02-19T00:07:46;6.30;;;5.18;;
57778;SDS011;43608;49.486;9.640;2023-02-19T00:08:17;6.65;;;5.43;;
57778;SDS011;43608;49.486;9.640;2023-02-19T00:08:48;5.88;;;5.10;;
57778;SDS011;43608;49.486;9.640;2023-02-19T00:09:19;6.32;;;4.93;;
57778;SDS011;43608;49.486;9.640;2023-02-19T00:09:50;5.85;;;5.25;;
57778;SDS011;43608;49.486;9.640;2023-02-19T00:10:20;5.30;;;4.80;;
57778;SDS011;43608;49.486;9.640;2023-02-19T00:10:51;5.90;;;4.88;;
57778;SDS011;43608;49.486;9.640;2023-02-19T00:11:23;5.65;;;5.03;;
57778;SDS011;43608;49.486;9.640;2023-02-19T00:11:55;5.32;;;4.63;;
57778;SDS011;43608;49.486;9.640;2023-02-19T00:12:25;5.30;;;4.80;;
57778;SDS011;43608;49.486;9.640;2023-02-19T00:12:56;5.68;;;5.03;;
57778;SDS011;43608;49.486;9.640;2023-02-19T00:13:27;5.97;;;4.80;;
57778;SDS011;43608;49.486;9.640;2023-02-19T00:13:57;5.55;;;4.60;;
57778;SDS011;43608;49.486;9.640;2023-02-19T00:14:29;5.32;;;4.68;;
57778;SDS011;43608;49.486;9.640;2023-02-19T00:14:59;4.85;;;4.25;;
57778;SDS011;43608;49.486;9.640;2023-02-19T00:15:33;5.57;;;4.97;;
57778;SDS011;43608;49.486;9.640;2023-02-19T00:16:07;5.25;;;4.63;;
57778;SDS011;43608;49.486;9.640;2023-02-19T00:16:38;5.78;;;4.82;;
57778;SDS011;43608;49.486;9.640;2023-02-19T00:17:09;5.63;;;4.97;;
57778;SDS011;43608;49.486;9.640;2023-02-19T00:17:39;5.30;;;4.68;;
57778;SDS011;43608;49.486;9.640;2023-02-19T00:18:10;5.78;;;4.70;;
57778;SDS011;43608;49.486;9.640;2023-02-19T00:18:40;5.57;;;5.00;;
57778;SDS011;43608;49.486;9.640;2023-02-19T00:19:12;5.50;;;4.82;;
57778;SDS011;43608;49.486;9.640;2023-02-19T00:19:46;5.20;;;4.45;;
57778;SDS011;43608;49.486;9.640;2023-02-19T00:20:17;5.68;;;4.65;;
57778;SDS011;43608;49.486;9.640;2023-02-19T00:20:47;5.00;;;4.50;;
57778;SDS011;43608;49.486;9.640;2023-02-19T00:21:18;5.97;;;5.00;;
57778;SDS011;43608;49.486;9.640;2023-02-19T00:21:51;5.55;;;4.93;;
57778;SDS011;43608;49.486;9.640;2023-02-19T00:22:22;5.38;;;4.85;;
57778;SDS011;43608;49.486;9.640;2023-02-19T00:22:52;5.70;;;5.10;;
57778;SDS011;43608;49.486;9.640;2023-02-19T00:23:23;5.20;;;4.70;;
57778;SDS011;43608;49.486;9.640;2023-02-19T00:23:54;5.63;;;5.05;;
57778;SDS011;43608;49.486;9.640;2023-02-19T00:24:27;5.90;;;5.30;;
57778;SDS011;43608;49.486;9.640;2023-02-19T00:24:57;6.10;;;4.90;;
57778;SDS011;43608;49.486;9.640;2023-02-19T00:25:27;5.47;;;4.90;;
57778;SDS011;43608;49.486;9.640;2023-02-19T00:26:05;6.07;;;4.97;;
57778;SDS011;43608;49.486;9.640;2023-02-19T00:26:37;5.20;;;4.70;;
57778;SDS011;43608;49.486;9.640;2023-02-19T00:27:09;5.80;;;5.20;;
57778;SDS011;43608;49.486;9.640;2023-02-19T00:27:39;6.65;;;5.53;;
57778;SDS011;43608;49.486;9.640;2023-02-19T00:28:09;6.43;;;5.45;;
57778;SDS011;43608;49.486;9.640;2023-02-19T00:28:40;5.60;;;5.00;;
57778;SDS011;43608;49.486;9.640;2023-02-19T00:29:14;6.25;;;5.20;;
57778;SDS011;43608;49.486;9.640;2023-02-19T00:29:46;6.30;;;5.20;;
57778;SDS011;43608;49.486;9.640;2023-02-19T00:30:17;5.90;;;5.30;;
57778;SDS011;43608;49.486;9.640;2023-02-19T00:30:47;6.40;;;5.25;;
57778;SDS011;43608;49.486;9.640;2023-02-19T00:31:50;5.85;;;4.95;;
57778;SDS011;43608;49.486;9.640;2023-02-19T00:32:20;6.50;;;5.38;;
57778;SDS011;43608;49.486;9.640;2023-02-19T00:32:50;5.93;;;5.18;;
57778;SDS011;43608;49.486;9.640;2023-02-19T00:33:21;5.60;;;4.97;;
57778;SDS011;43608;49.486;9.640;2023-02-19T00:33:52;6.07;;;5.07;;
57778;SDS011;43608;49.486;9.640;2023-02-19T00:34:24;5.55;;;5.05;;
57778;SDS011;43608;49.486;9.640;2023-02-19T00:34:54;5.82;;;5.22;;
57778;SDS011;43608;49.486;9.640;2023-02-19T00:35:24;6.35;;;5.30;;
57778;SDS011;43608;49.486;9.640;2023-02-19T00:35:57;5.30;;;4.80;;
57778;SDS011;43608;49.486;9.640;2023-02-19T00:36:29;6.00;;;5.40;;
57778;SDS011;43608;49.486;9.640;2023-02-19T00:37:01;5.70;;;5.07;;
57778;SDS011;43608;49.486;9.640;2023-02-19T00:37:31;5.82;;;5.22;;
57778;SDS011;43608;49.486;9.640;2023-02-19T00:38:01;5.45;;;4.93;;
57778;SDS011;43608;49.486;9.640;2023-02-19T00:38:36;6.03;;;5.00;;
57778;SDS011;43608;49.486;9.640;2023-02-19T00:39:09;5.07;;;4.57;;
57778;SDS011;43608;49.486;9.640;2023-02-19T00:39:47;5.30;;;4.65;;
57778;SDS011;43608;49.486;9.640;2023-02-19T00:40:17;5.25;;;4.75;;
57778;SDS011;43608;49.486;9.640;2023-02-19T00:40:48;5.72;;;5.13;;
57778;SDS011;43608;49.486;9.640;2023-02-19T00:41:19;6.15;;;5.07;;
57778;SDS011;43608;49.486;9.640;2023-02-19T00:41:50;5.50;;;4.82;;
57778;SDS011;43608;49.486;9.640;2023-02-19T00:42:21;5.50;;;4.78;;
57778;SDS011;43608;49.486;9.640;2023-02-19T00:42:51;5.15;;;4.65;;
57778;SDS011;43608;49.486;9.640;2023-02-19T00:43:22;5.40;;;4.90;;
57778;SDS011;43608;49.486;9.640;2023-02-19T00:43:53;5.47;;;4.78;;
57778;SDS011;43608;49.486;9.640;2023-02-19T00:44:25;5.68;;;4.72;;
57778;SDS011;43608;49.486;9.640;2023-02-19T00:44:56;5.00;;;4.50;;
57778;SDS011;43608;49.486;9.640;2023-02-19T00:45:26;5.55;;;4.78;;
57778;SDS011;43608;49.486;9.640;2023-02-19T00:45:57;5.70;;;5.03;;
57778;SDS011;43608;49.486;9.640;2023-02-19T00:46:28;5.32;;;4.82;;
57778;SDS011;43608;49.486;9.640;2023-02-19T00:46:59;5.30;;;4.80;;
57778;SDS011;43608;49.486;9.640;2023-02-19T00:47:29;5.30;;;4.75;;
57778;SDS011;43608;49.486;9.640;2023-02-19T00:48:00;5.10;;;4.60;;
57778;SDS011;43608;49.486;9.640;2023-02-19T00:48:30;5.22;;;4.55;;
57778;SDS011;43608;49.486;9.640;2023-02-19T00:49:00;5.10;;;4.60;;
57778;SDS011;43608;49.486;9.640;2023-02-19T00:49:31;4.90;;;4.32;;
57778;SDS011;43608;49.486;9.640;2023-02-19T00:50:01;5.97;;;4.32;;
57778;SDS011;43608;49.486;9.640;2023-02-19T00:50:32;5.30;;;4.80;;
57778;SDS011;43608;49.486;9.640;2023-02-19T00:51:02;5.43;;;4.90;;
57778;SDS011;43608;49.486;9.640;2023-02-19T00:51:34;5.22;;;4.72;;
57778;SDS011;43608;49.486;9.640;2023-02-19T00:52:06;5.78;;;5.18;;
57778;SDS011;43608;49.486;9.640;2023-02-19T00:52:36;6.15;;;5.30;;
57778;SDS011;43608;49.486;9.640;2023-02-19T00:53:07;5.78;;;5.18;;
57778;SDS011;43608;49.486;9.640;2023-02-19T00:53:37;5.60;;;5.00;;
57778;SDS011;43608;49.486;9.640;2023-02-19T00:54:08;6.13;;;5.40;;
57778;SDS011;43608;49.486;9.640;2023-02-19T00:54:39;6.40;;;5.25;;
57778;SDS011;43608;49.486;9.640;2023-02-19T00:55:10;5.65;;;5.13;;
57778;SDS011;43608;49.486;9.640;2023-02-19T00:55:40;5.55;;;5.05;;
57778;SDS011;43608;49.486;9.640;2023-02-19T00:56:10;5.55;;;4.97;;
57778;SDS011;43608;49.486;9.640;2023-02-19T00:56:41;5.55;;;4.63;;
57778;SDS011;43608;49.486;9.640;2023-02-19T00:57:11;4.90;;;4.35;;
57778;SDS011;43608;49.486;9.640;2023-02-19T00:57:42;5.50;;;4.60;;
57778;SDS011;43608;49.486;9.640;2023-02-19T00:58:12;5.10;;;4.60;;
57778;SDS011;43608;49.486;9.640;2023-02-19T00:58:42;5.95;;;4.80;;
57778;SDS011;43608;49.486;9.640;2023-02-19T00:59:13;5.30;;;4.70;;
57778;SDS011;43608;49.486;9.640;2023-02-19T00:59:44;5.25;;;4.75;;
57778;SDS011;43608;49.486;9.640;2023-02-19T01:00:14;5.80;;;5.00;;
57778;SDS011;43608;49.486;9.640;2023-02-19T01:00:45;5.22;;;4.72;;
57778;SDS011;43608;49.486;9.640;2023-02-19T01:01:16;5.53;;;5.00;;
57778;SDS011;43608;49.486;9.640;2023-02-19T01:01:47;6.00;;;4.78;;
57778;SDS011;43608;49.486;9.640;2023-02-19T01:02:18;6.00;;;5.00;;
57778;SDS011;43608;49.486;9.640;2023-02-19T01:02:49;7.10;;;5.07;;
57778;SDS011;43608;49.486;9.640;2023-02-19T01:03:19;6.38;;;4.70;;
57778;SDS011;43608;49.486;9.640;2023-02-19T01:03:51;6.05;;;5.40;;
57778;SDS011;43608;49.486;9.640;2023-02-19T01:04:22;5.63;;;5.03;;
57778;SDS011;43608;49.486;9.640;2023-02-19T01:04:52;5.97;;;5.35;;
57778;SDS011;43608;49.486;9.640;2023-02-19T01:05:22;7.05;;;5.75;;
57778;SDS011;43608;49.486;9.640;2023-02-19T01:05:53;6.07;;;5.47;;
57778;SDS011;43608;49.486;9.640;2023-02-19T01:06:23;6.55;;;5.85;;
57778;SDS011;43608;49.486;9.640;2023-02-19T01:06:54;6.32;;;5.72;;
57778;SDS011;43608;49.486;9.640;2023-02-19T01:07:25;6.65;;;5.88;;
57778;SDS011;43608;49.486;9.640;2023-02-19T01:07:55;6.60;;;5.90;;
57778;SDS011;43608;49.486;9.640;2023-02-19T01:08:26;6.35;;;5.70;;
57778;SDS011;43608;49.486;9.640;2023-02-19T01:08:56;6.25;;;5.65;;
57778;SDS011;43608;49.486;9.640;2023-02-19T01:09:27;6.15;;;5.55;;
57778;SDS011;43608;49.486;9.640;2023-02-19T01:09:57;6.00;;;5.40;;
57778;SDS011;43608;49.486;9.640;2023-02-19T01:10:27;6.75;;;5.68;;
57778;SDS011;43608;49.486;9.640;2023-02-19T01:10:58;6.22;;;5.63;;
57778;SDS011;43608;49.486;9.640;2023-02-19T01:11:28;6.00;;;5.40;;
57778;SDS011;43608;49.486;9.640;2023-02-19T01:11:59;5.82;;;5.22;;
57778;SDS011;43608;49.486;9.640;2023-02-19T01:12:29;5.95;;;5.25;;
57778;SDS011;43608;49.486;9.640;2023-02-19T01:13:00;5.75;;;5.15;;
57778;SDS011;43608;49.486;9.640;2023-02-19T01:13:31;5.35;;;4.85;;
57778;SDS011;43608;49.486;9.640;2023-02-19T01:14:02;6.07;;;5.35;;
57778;SDS011;43608;49.486;9.640;2023-02-19T01:14:32;5.90;;;5.30;;
57778;SDS011;43608;49.486;9.640;2023-02-19T01:15:03;5.72;;;5.10;;
57778;SDS011;43608;49.486;9.640;2023-02-19T01:15:33;6.18;;;5.00;;
57778;SDS011;43608;49.486;9.640;2023-02-19T01:16:05;6.53;;;4.97;;
57778;SDS011;43608;49.486;9.640;2023-02-19T01:16:38;5.40;;;4.90;;
57778;SDS011;43608;49.486;9.640;2023-02-19T01:17:08;5.85;;;5.25;;
57778;SDS011;43608;49.486;9.640;2023-02-19T01:17:38;5.95;;;5.03;;
57778;SDS011;43608;49.486;9.640;2023-02-19T01:18:09;5.75;;;5.07;;
57778;SDS011;43608;49.486;9.640;2023-02-19T01:18:40;5.95;;;5.35;;
57778;SDS011;43608;49.486;9.640;2023-02-19T01:19:10;6.10;;;5.50;;
57778;SDS011;43608;49.486;9.640;2023-02-19T01:19:41;6.18;;;5.57;;
57778;SDS011;43608;49.486;9.640;2023-02-19T01:20:11;6.53;;;5.82;;
57778;SDS011;43608;49.486;9.640;2023-02-19T01:20:42;6.35;;;5.53;;
57778;SDS011;43608;49.486;9.640;2023-02-19T01:21:15;6.38;;;5.60;;
57778;SDS011;43608;49.486;9.640;2023-02-19T01:21:47;6.22;;;5.22;;
57778;SDS011;43608;49.486;9.640;2023-02-19T01:22:18;5.95;;;5.38;;
57778;SDS011;43608;49.486;9.640;2023-02-19T01:22:48;6.57;;;5.50;;
57778;SDS011;43608;49.486;9.640;2023-02-19T01:23:18;5.95;;;5.25;;
57778;SDS011;43608;49.486;9.640;2023-02-19T01:23:49;5.90;;;5.35;;
57778;SDS011;43608;49.486;9.640;2023-02-19T01:24:20;6.72;;;5.35;;
57778;SDS011;43608;49.486;9.640;2023-02-19T01:24:51;5.60;;;4.95;;
57778;SDS011;43608;49.486;9.640;2023-02-19T01:25:21;5.78;;;5.18;;
57778;SDS011;43608;49.486;9.640;2023-02-19T01:25:52;6.18;;;5.15;;
57778;SDS011;43608;49.486;9.640;2023-02-19T01:26:23;6.05;;;5.35;;
57778;SDS011;43608;49.486;9.640;2023-02-19T01:26:55;6.43;;;5.22;;
57778;SDS011;43608;49.486;9.640;2023-02-19T01:27:26;6.07;;;5.47;;
57778;SDS011;43608;49.486;9.640;2023-02-19T01:27:56;6.20;;;5.57;;
57778;SDS011;43608;49.486;9.640;2023-02-19T01:28:26;7.13;;;5.50;;
57778;SDS011;43608;49.486;9.640;2023-02-19T01:28:57;6.68;;;5.80;;
57778;SDS011;43608;49.486;9.640;2023-02-19T01:29:31;6.28;;;5.68;;
57778;SDS011;43608;49.486;9.640;2023-02-19T01:30:01;6.47;;;5.75;;
57778;SDS011;43608;49.486;9.640;2023-02-19T01:30:35;6.45;;;5.75;;
57778;SDS011;43608;49.486;9.640;2023-02-19T01:31:07;6.47;;;5.78;;
57778;SDS011;43608;49.486;9.640;2023-02-19T01:31:40;6.10;;;5.47;;
57778;SDS011;43608;49.486;9.640;2023-02-19T01:32:11;5.82;;;5.25;;
57778;SDS011;43608;49.486;9.640;2023-02-19T01:32:41;5.68;;;5.13;;
57778;SDS011;43608;49.486;9.640;2023-02-19T01:33:11;5.63;;;5.13;;
57778;SDS011;43608;49.486;9.640;2023-02-19T01:33:46;6.07;;;5.47;;
57778;SDS011;43608;49.486;9.640;2023-02-19T01:34:17;5.03;;;4.50;;
57778;SDS011;43608;49.486;9.640;2023-02-19T01:34:48;6.00;;;5.40;;
57778;SDS011;43608;49.486;9.640;2023-02-19T01:35:18;6.15;;;5.28;;
57778;SDS011;43608;49.486;9.640;2023-02-19T01:35:48;6.38;;;5.45;;
57778;SDS011;43608;49.486;9.640;2023-02-19T01:36:19;5.72;;;5.10;;
57778;SDS011;43608;49.486;9.640;2023-02-19T01:36:49;5.55;;;5.00;;
57778;SDS011;43608;49.486;9.640;2023-02-19T01:37:19;5.78;;;5.18;;
57778;SDS011;43608;49.486;9.640;2023-02-19T01:37:50;5.88;;;5.10;;
57778;SDS011;43608;49.486;9.640;2023-02-19T01:38:20;6.63;;;5.13;;
57778;SDS011;43608;49.486;9.640;2023-02-19T01:38:50;6.50;;;5.80;;
57778;SDS011;43608;49.486;9.640;2023-02-19T01:39:21;6.55;;;5.85;;
57778;SDS011;43608;49.486;9.640;2023-02-19T01:39:51;6.47;;;5.68;;
57778;SDS011;43608;49.486;9.640;2023-02-19T01:40:22;8.45;;;6.03;;
57778;SDS011;43608;49.486;9.640;2023-02-19T01:40:53;6.75;;;6.05;;
57778;SDS011;43608;49.486;9.640;2023-02-19T01:41:33;6.55;;;5.40;;
57778;SDS011;43608;49.486;9.640;2023-02-19T01:42:09;6.50;;;5.60;;
57778;SDS011;43608;49.486;9.640;2023-02-19T01:42:43;5.90;;;5.30;;
57778;SDS011;43608;49.486;9.640;2023-02-19T01:43:14;6.88;;;5.70;;
57778;SDS011;43608;49.486;9.640;2023-02-19T01:44:01;6.00;;;4.90;;
57778;SDS011;43608;49.486;9.640;2023-02-19T01:46:07;5.90;;;4.93;;
57778;SDS011;43608;49.486;9.640;2023-02-19T01:46:37;5.93;;;5.28;;
57778;SDS011;43608;49.486;9.640;2023-02-19T01:47:09;6.45;;;5.57;;
57778;SDS011;43608;49.486;9.640;2023-02-19T01:47:40;6.97;;;5.47;;
57778;SDS011;43608;49.486;9.640;2023-02-19T01:48:12;6.97;;;5.80;;
57778;SDS011;43608;49.486;9.640;2023-02-19T01:48:46;6.28;;;5.68;;
57778;SDS011;43608;49.486;9.640;2023-02-19T01:49:18;5.88;;;5.28;;
57778;SDS011;43608;49.486;9.640;2023-02-19T01:49:53;6.22;;;5.13;;
57778;SDS011;43608;49.486;9.640;2023-02-19T01:50:27;6.80;;;5.93;;
57778;SDS011;43608;49.486;9.640;2023-02-19T01:51:05;6.28;;;5.68;;
57778;SDS011;43608;49.486;9.640;2023-02-19T01:51:43;6.00;;;5.40;;
57778;SDS011;43608;49.486;9.640;2023-02-19T01:52:21;6.10;;;5.35;;
57778;SDS011;43608;49.486;9.640;2023-02-19T01:52:56;5.82;;;5.22;;
57778;SDS011;43608;49.486;9.640;2023-02-19T01:53:28;6.65;;;5.45;;
57778;SDS011;43608;49.486;9.640;2023-02-19T01:54:06;6.72;;;5.40;;
57778;SDS011;43608;49.486;9.640;2023-02-19T01:54:39;5.75;;;5.15;;
57778;SDS011;43608;49.486;9.640;2023-02-19T01:55:12;6.18;;;5.57;;
57778;SDS011;43608;49.486;9.640;2023-02-19T01:55:43;6.28;;;5.53;;
57778;SDS011;43608;49.486;9.640;2023-02-19T01:56:16;6.00;;;5.40;;
57778;SDS011;43608;49.486;9.640;2023-02-19T01:56:49;6.13;;;5.40;;
57778;SDS011;43608;49.486;9.640;2023-02-19T01:57:22;6.18;;;5.45;;
57778;SDS011;43608;49.486;9.640;2023-02-19T01:57:55;7.15;;;5.80;;
57778;SDS011;43608;49.486;9.640;2023-02-19T01:58:26;5.95;;;5.35;;
57778;SDS011;43608;49.486;9.640;2023-02-19T01:59:00;6.75;;;5.50;;
57778;SDS011;43608;49.486;9.640;2023-02-19T01:59:31;5.97;;;5.38;;
57778;SDS011;43608;49.486;9.640;2023-02-19T02:00:05;6.20;;;5.45;;
57778;SDS011;43608;49.486;9.640;2023-02-19T02:00:38;6.40;;;5.75;;
57778;SDS011;43608;49.486;9.640;2023-02-19T02:01:08;6.03;;;5.43;;
57778;SDS011;43608;49.486;9.640;2023-02-19T02:01:38;6.90;;;5.40;;
57778;SDS011;43608;49.486;9.640;2023-02-19T02:02:10;6.20;;;5.47;;
57778;SDS011;43608;49.486;9.640;2023-02-19T02:02:41;5.80;;;5.22;;
57778;SDS011;43608;49.486;9.640;2023-02-19T02:03:13;6.38;;;5.50;;
57778;SDS011;43608;49.486;9.640;2023-02-19T02:03:46;5.72;;;5.10;;
57778;SDS011;43608;49.486;9.640;2023-02-19T02:04:18;6.00;;;5.30;;
57778;SDS011;43608;49.486;9.640;2023-02-19T02:04:48;6.22;;;5.35;;
57778;SDS011;43608;49.486;9.640;2023-02-19T02:05:24;5.45;;;4.90;;
57778;SDS011;43608;49.486;9.640;2023-02-19T02:06:12;5.80;;;5.20;;
57778;SDS011;43608;49.486;9.640;2023-02-19T02:06:49;5.50;;;5.00;;
57778;SDS011;43608;49.486;9.640;2023-02-19T02:07:21;5.05;;;4.55;;
57778;SDS011;43608;49.486;9.640;2023-02-19T02:08:11;5.53;;;4.75;;
57778;SDS011;43608;49.486;9.640;2023-02-19T02:09:01;5.75;;;5.05;;
57778;SDS011;43608;49.486;9.640;2023-02-19T02:09:51;5.13;;;4.53;;
57778;SDS011;43608;49.486;9.640;2023-02-19T02:10:40;5.22;;;4.72;;
57778;SDS011;43608;49.486;9.640;2023-02-19T02:11:12;5.93;;;4.90;;
57778;SDS011;43608;49.486;9.640;2023-02-19T02:11:46;6.30;;;5.22;;
57778;SDS011;43608;49.486;9.640;2023-02-19T02:12:19;5.80;;;5.20;;
57778;SDS011;43608;49.486;9.640;2023-02-19T02:12:50;5.50;;;4.97;;
57778;SDS011;43608;49.486;9.640;2023-02-19T02:13:25;7.07;;;5.05;;
57778;SDS011;43608;49.486;9.640;2023-02-19T02:13:56;7.15;;;5.00;;
57778;SDS011;43608;49.486;9.640;2023-02-19T02:14:28;7.15;;;4.75;;
57778;SDS011;43608;49.486;9.640;2023-02-19T02:15:00;4.95;;;4.45;;
57778;SDS011;43608;49.486;9.640;2023-02-19T02:15:34;5.82;;;5.22;;
57778;SDS011;43608;49.486;9.640;2023-02-19T02:18:01;5.90;;;4.47;;
57778;SDS011;43608;49.486;9.640;2023-02-19T02:21:09;5.97;;;4.82;;
57778;SDS011;43608;49.486;9.640;2023-02-19T02:21:49;5.20;;;4.25;;
57778;SDS011;43608;49.486;9.640;2023-02-19T02:24:22;5.00;;;4.30;;
57778;SDS011;43608;49.486;9.640;2023-02-19T02:25:58;5.93;;;4.10;;
57778;SDS011;43608;49.486;9.640;2023-02-19T02:26:54;4.40;;;3.90;;
57778;SDS011;43608;49.486;9.640;2023-02-19T02:32:08;4.43;;;3.90;;
57778;SDS011;43608;49.486;9.640;2023-02-19T02:32:53;4.45;;;3.97;;
57778;SDS011;43608;49.486;9.640;2023-02-19T02:34:01;4.05;;;3.53;;
57778;SDS011;43608;49.486;9.640;2023-02-19T02:34:44;4.45;;;3.50;;
57778;SDS011;43608;49.486;9.640;2023-02-19T02:35:22;4.22;;;3.83;;
57778;SDS011;43608;49.486;9.640;2023-02-19T02:35:58;4.57;;;4.07;;
57778;SDS011;43608;49.486;9.640;2023-02-19T02:36:38;4.57;;;3.75;;
57778;SDS011;43608;49.486;9.640;2023-02-19T02:37:12;4.20;;;3.80;;
57778;SDS011;43608;49.486;9.640;2023-02-19T02:37:44;4.75;;;4.25;;
57778;SDS011;43608;49.486;9.640;2023-02-19T02:38:16;4.70;;;4.18;;
57778;SDS011;43608;49.486;9.640;2023-02-19T02:38:49;5.03;;;4.30;;
57778;SDS011;43608;49.486;9.640;2023-02-19T02:39:24;5.13;;;4.03;;
57778;SDS011;43608;49.486;9.640;2023-02-19T02:39:57;4.30;;;3.72;;
57778;SDS011;43608;49.486;9.640;2023-02-19T02:40:28;4.20;;;3.70;;
57778;SDS011;43608;49.486;9.640;2023-02-19T02:40:59;4.30;;;3.80;;
57778;SDS011;43608;49.486;9.640;2023-02-19T02:41:31;4.53;;;3.78;;
57778;SDS011;43608;49.486;9.640;2023-02-19T02:42:02;4.75;;;3.83;;
57778;SDS011;43608;49.486;9.640;2023-02-19T02:42:51;4.07;;;3.50;;
57778;SDS011;43608;49.486;9.640;2023-02-19T02:43:21;4.22;;;3.60;;
57778;SDS011;43608;49.486;9.640;2023-02-19T02:43:52;4.40;;;3.65;;
57778;SDS011;43608;49.486;9.640;2023-02-19T02:44:32;4.32;;;3.60;;
57778;SDS011;43608;49.486;9.640;2023-02-19T02:46:04;4.20;;;3.63;;
57778;SDS011;43608;49.486;9.640;2023-02-19T02:46:35;4.63;;;3.55;;
57778;SDS011;43608;49.486;9.640;2023-02-19T02:47:10;4.20;;;3.78;;
57778;SDS011;43608;49.486;9.640;2023-02-19T02:48:47;4.03;;;3.63;;
57778;SDS011;43608;49.486;9.640;2023-02-19T02:48:57;3.70;;;3.10;;
57778;SDS011;43608;49.486;9.640;2023-02-19T02:49:30;3.75;;;3.35;;
57778;SDS011;43608;49.486;9.640;2023-02-19T02:50:02;4.28;;;3.40;;
57778;SDS011;43608;49.486;9.640;2023-02-19T02:50:37;4.35;;;3.17;;
57778;SDS011;43608;49.486;9.640;2023-02-19T02:51:17;3.63;;;3.25;;
57778;SDS011;43608;49.486;9.640;2023-02-19T02:51:55;4.00;;;3.30;;
57778;SDS011;43608;49.486;9.640;2023-02-19T02:52:27;4.10;;;3.60;;
57778;SDS011;43608;49.486;9.640;2023-02-19T02:53:20;4.15;;;3.67;;
57778;SDS011;43608;49.486;9.640;2023-02-19T02:54:15;4.10;;;3.53;;
57778;SDS011;43608;49.486;9.640;2023-02-19T02:55:08;3.90;;;3.28;;
57778;SDS011;43608;49.486;9.640;2023-02-19T02:55:41;3.95;;;3.55;;
57778;SDS011;43608;49.486;9.640;2023-02-19T02:56:14;3.78;;;3.38;;
57778;SDS011;43608;49.486;9.640;2023-02-19T02:56:47;5.50;;;3.72;;
57778;SDS011;43608;49.486;9.640;2023-02-19T02:57:19;4.18;;;3.45;;
57778;SDS011;43608;49.486;9.640;2023-02-19T02:57:49;4.65;;;3.67;;
57778;SDS011;43608;49.486;9.640;2023-02-19T02:58:21;3.70;;;3.33;;
57778;SDS011;43608;49.486;9.640;2023-02-19T02:58:53;3.95;;;3.47;;
57778;SDS011;43608;49.486;9.640;2023-02-19T02:59:28;3.80;;;3.30;;
57778;SDS011;43608;49.486;9.640;2023-02-19T03:00:01;3.92;;;3.20;;
57778;SDS011;43608;49.486;9.640;2023-02-19T03:00:32;4.13;;;3.30;;
57778;SDS011;43608;49.486;9.640;2023-02-19T03:01:24;3.60;;;3.10;;
57778;SDS011;43608;49.486;9.640;2023-02-19T03:02:19;3.72;;;3.03;;
57778;SDS011;43608;49.486;9.640;2023-02-19T03:02:53;3.97;;;3.25;;
57778;SDS011;43608;49.486;9.640;2023-02-19T03:03:25;4.10;;;3.20;;
57778;SDS011;43608;49.486;9.640;2023-02-19T03:04:00;4.63;;;3.58;;
57778;SDS011;43608;49.486;9.640;2023-02-19T03:05:34;4.13;;;3.15;;
57778;SDS011;43608;49.486;9.640;2023-02-19T03:06:23;3.95;;;2.95;;
57778;SDS011;43608;49.486;9.640;2023-02-19T03:06:58;3.63;;;3.03;;
57778;SDS011;43608;49.486;9.640;2023-02-19T03:07:35;3.50;;;3.10;;
57778;SDS011;43608;49.486;9.640;2023-02-19T03:08:12;3.72;;;3.10;;
57778;SDS011;43608;49.486;9.640;2023-02-19T03:08:53;3.30;;;3.00;;
57778;SDS011;43608;49.486;9.640;2023-02-19T03:09:40;3.75;;;3.22;;
57778;SDS011;43608;49.486;9.640;2023-02-19T03:10:12;4.90;;;3.42;;
57778;SDS011;43608;49.486;9.640;2023-02-19T03:10:58;3.67;;;3.08;;
57778;SDS011;43608;49.486;9.640;2023-02-19T03:11:53;3.58;;;3.00;;
57778;SDS011;43608;49.486;9.640;2023-02-19T03:12:44;3.60;;;3.15;;
57778;SDS011;43608;49.486;9.640;2023-02-19T03:13:33;3.40;;;3.08;;
57778;SDS011;43608;49.486;9.640;2023-02-19T03:14:33;4.07;;;3.20;;
57778;SDS011;43608;49.486;9.640;2023-02-19T03:15:32;3.58;;;2.90;;
57778;SDS011;43608;49.486;9.640;2023-02-19T03:16:27;3.80;;;3.20;;
57778;SDS011;43608;49.486;9.640;2023-02-19T03:17:26;3.70;;;3.10;;
57778;SDS011;43608;49.486;9.640;2023-02-19T03:18:37;3.30;;;2.80;;
57778;SDS011;43608;49.486;9.640;2023-02-19T03:19:34;3.55;;;3.20;;
57778;SDS011;43608;49.486;9.640;2023-02-19T03:20:10;3.75;;;3.05;;
57778;SDS011;43608;49.486;9.640;2023-02-19T03:20:43;3.75;;;3.25;;
57778;SDS011;43608;49.486;9.640;2023-02-19T03:21:17;4.28;;;3.53;;
57778;SDS011;43608;49.486;9.640;2023-02-19T03:21:51;3.47;;;3.10;;
57778;SDS011;43608;49.486;9.640;2023-02-19T03:22:26;5.15;;;3.28;;
57778;SDS011;43608;49.486;9.640;2023-02-19T03:23:00;4.00;;;3.20;;
57778;SDS011;43608;49.486;9.640;2023-02-19T03:23:31;3.65;;;3.00;;
57778;SDS011;43608;49.486;9.640;2023-02-19T03:24:22;3.30;;;2.88;;
57778;SDS011;43608;49.486;9.640;2023-02-19T03:25:26;4.50;;;3.45;;
57778;SDS011;43608;49.486;9.640;2023-02-19T03:26:22;4.20;;;3.20;;
57778;SDS011;43608;49.486;9.640;2023-02-19T03:26:55;3.90;;;3.40;;
57778;SDS011;43608;49.486;9.640;2023-02-19T03:27:29;4.07;;;3.28;;
57778;SDS011;43608;49.486;9.640;2023-02-19T03:28:04;4.10;;;3.40;;
57778;SDS011;43608;49.486;9.640;2023-02-19T03:28:37;3.90;;;3.40;;
57778;SDS011;43608;49.486;9.640;2023-02-19T03:29:31;4.05;;;3.28;;
57778;SDS011;43608;49.486;9.640;2023-02-19T03:30:08;4.18;;;3.15;;
57778;SDS011;43608;49.486;9.640;2023-02-19T03:30:46;3.38;;;2.90;;
57778;SDS011;43608;49.486;9.640;2023-02-19T03:31:21;3.30;;;3.00;;
57778;SDS011;43608;49.486;9.640;2023-02-19T03:31:55;3.70;;;3.00;;
57778;SDS011;43608;49.486;9.640;2023-02-19T03:32:31;4.22;;;2.88;;
57778;SDS011;43608;49.486;9.640;2023-02-19T03:33:09;3.35;;;3.05;;
57778;SDS011;43608;49.486;9.640;2023-02-19T03:33:43;3.80;;;3.03;;
57778;SDS011;43608;49.486;9.640;2023-02-19T03:35:10;2.97;;;2.67;;
57778;SDS011;43608;49.486;9.640;2023-02-19T03:35:46;3.55;;;2.97;;
57778;SDS011;43608;49.486;9.640;2023-02-19T03:36:21;3.15;;;2.70;;
57778;SDS011;43608;49.486;9.640;2023-02-19T03:36:58;3.10;;;2.70;;
57778;SDS011;43608;49.486;9.640;2023-02-19T03:37:36;3.50;;;3.00;;
57778;SDS011;43608;49.486;9.640;2023-02-19T03:38:48;3.20;;;2.88;;
57778;SDS011;43608;49.486;9.640;2023-02-19T03:39:28;3.85;;;2.75;;
57778;SDS011;43608;49.486;9.640;2023-02-19T03:39:59;3.60;;;2.70;;
57778;SDS011;43608;49.486;9.640;2023-02-19T03:40:30;2.95;;;2.65;;
57778;SDS011;43608;49.486;9.640;2023-02-19T03:41:10;3.28;;;2.85;;
57778;SDS011;43608;49.486;9.640;2023-02-19T03:43:16;3.30;;;2.70;;
57778;SDS011;43608;49.486;9.640;2023-02-19T03:44:16;4.07;;;2.80;;
57778;SDS011;43608;49.486;9.640;2023-02-19T03:44:52;4.28;;;2.90;;
57778;SDS011;43608;49.486;9.640;2023-02-19T03:48:55;2.88;;;2.50;;
57778;SDS011;43608;49.486;9.640;2023-02-19T03:50:28;2.80;;;2.20;;